Terminal Aerodrome Forecast
Issued by NWS Charleston, WV

Current Version | Previous Version | Graphics & Text | Print | Product List | Glossary On
Versions: 1 2 3 4 5 6 7 8 9 10 11 12 13 14 15 16 17 18 19 20 21 22 23 24
188
FTUS41 KRLX 151127
TAFPKB
TAF
KPKB 151127Z 1512/1612 VRB02KT 5SM BR BKN020
     FM151600 VRB02KT P6SM BKN070
     FM160700 VRB02KT 5SM BR BKN045=

USA.gov is the U.S. government's official web portal to all federal, state and local government web resources and services.